createdAt,value
2022-12-19T00:09:42.043Z,101435.44
2022-12-19T00:19:45.067Z,101413.59
2022-12-19T00:29:49.267Z,101405.81
2022-12-19T00:39:52.243Z,101378.16
2022-12-19T00:49:56.752Z,101361.69
2022-12-19T01:00:00.553Z,101346.59
2022-12-19T01:10:05.575Z,101355.13
2022-12-19T01:20:10.024Z,101348.41
2022-12-19T01:30:15.379Z,101344.09
2022-12-19T01:40:18.481Z,101351.94
2022-12-19T01:50:28.192Z,101319.78
2022-12-19T02:00:31.300Z,101326.03
2022-12-19T02:10:37.695Z,101316.13
2022-12-19T02:21:06.917Z,101306.53
2022-12-19T02:31:18.028Z,101270.75
2022-12-19T02:41:27.947Z,101251.47
2022-12-19T02:51:35.661Z,101239.59
2022-12-19T03:01:47.047Z,101236.84
2022-12-19T03:12:03.455Z,101230.19
2022-12-19T03:22:07.843Z,101219.72
2022-12-19T03:32:15.281Z,101209.63
2022-12-19T03:42:39.325Z,101193.94
2022-12-19T03:52:53.713Z,101186.38
2022-12-19T04:02:58.895Z,101187.19
2022-12-19T04:13:07.150Z,101177.13
2022-12-19T04:23:18.946Z,101162.13
2022-12-19T04:33:23.470Z,101157.03
2022-12-19T04:43:26.468Z,101168.56
2022-12-19T04:53:31.415Z,101171.19
2022-12-19T05:03:35.491Z,101163.75
2022-12-19T05:13:39.715Z,101142.44
2022-12-19T05:23:42.944Z,101136.94
2022-12-19T05:33:48.168Z,101136.47
2022-12-19T05:43:53.169Z,101114.66
2022-12-19T05:53:57.596Z,101136.22
2022-12-19T06:04:00.636Z,101160.41
2022-12-19T06:14:05.032Z,101159.81
2022-12-19T06:24:08.768Z,101155.69
2022-12-19T06:34:32.960Z,101149.16
2022-12-19T06:44:37.347Z,101168.56
2022-12-19T06:54:41.623Z,101170.16
2022-12-19T07:04:51.147Z,101156.59
2022-12-19T07:14:56.397Z,101158.19
2022-12-19T07:25:00.444Z,101160.16
2022-12-19T07:35:04.941Z,101180.81
2022-12-19T07:45:08.600Z,101182.63
2022-12-19T07:55:13.480Z,101176.19
2022-12-19T08:05:16.621Z,101170.44
2022-12-19T08:15:21.141Z,101177.47
2022-12-19T08:25:24.134Z,101169.22
2022-12-19T08:35:28.444Z,101163.38
2022-12-19T08:45:31.572Z,101159.84
2022-12-19T08:55:36.787Z,101185.28
2022-12-19T09:06:05.021Z,101186.97
2022-12-19T09:16:14.165Z,101178.72
2022-12-19T09:26:17.744Z,101173.06
2022-12-19T09:36:24.411Z,101166.13
2022-12-19T09:46:38.183Z,101149.69
2022-12-19T09:56:46.937Z,101118.25
2022-12-19T10:07:13.923Z,101131.94
2022-12-19T10:17:26.325Z,101137.16
2022-12-19T15:16:47.490Z,100981.84
2022-12-19T15:26:54.972Z,100986.09
2022-12-19T15:36:59.655Z,100997.19
2022-12-19T15:47:05.036Z,100982.75
2022-12-19T15:57:21.032Z,100952.13
2022-12-19T16:17:48.968Z,100935.31
2022-12-19T16:27:57.037Z,100914.97
2022-12-19T16:38:01.314Z,100892.97
2022-12-19T16:48:04.672Z,100900.59
2022-12-19T16:58:15.880Z,100936.41
2022-12-19T17:08:19.801Z,100962.81
2022-12-19T17:18:28.167Z,100995.84
2022-12-19T17:28:31.070Z,100992.66
2022-12-19T17:38:35.806Z,100978.16
2022-12-19T17:48:39.572Z,101000.25
2022-12-19T17:58:44.170Z,100969.81
2022-12-19T18:08:47.127Z,100972.31
2022-12-19T18:18:51.552Z,100944.25
2022-12-19T18:28:54.663Z,100952.81
2022-12-19T18:38:59.088Z,100953.75
2022-12-19T18:49:02.239Z,100937.56
2022-12-19T18:59:07.832Z,100935.88
2022-12-19T19:09:16.083Z,100930.75
2022-12-19T19:19:20.796Z,100935.81
2022-12-19T19:29:23.706Z,100958.72
2022-12-19T19:39:28.671Z,100967.16
2022-12-19T19:49:31.434Z,100974.91
2022-12-19T19:59:35.597Z,100954.88
2022-12-19T20:09:38.393Z,100968.31
2022-12-19T20:19:42.705Z,100959.56
2022-12-19T20:29:45.534Z,100978.47
2022-12-19T20:39:49.772Z,100993.03
2022-12-19T20:49:52.765Z,100988.78
2022-12-19T20:59:57.273Z,100980.09
2022-12-19T21:10:00.285Z,100988.66
2022-12-19T21:20:05.207Z,100968.91
2022-12-19T21:30:10.065Z,100991.84
2022-12-19T21:40:15.356Z,100966.09
2022-12-19T21:50:18.318Z,100966.19
2022-12-19T22:00:23.221Z,100968.38
2022-12-19T22:10:26.365Z,100953.78
2022-12-19T22:20:30.683Z,100949.28
2022-12-19T22:30:34.712Z,100940.50
2022-12-19T22:40:39.854Z,100936.31
2022-12-19T22:50:47.632Z,100945.19
2022-12-19T23:00:52.138Z,100932.19
2022-12-19T23:10:55.295Z,100919.91
2022-12-19T23:21:09.602Z,100911.28
2022-12-19T23:31:14.922Z,100883.22
2022-12-19T23:41:19.355Z,100859.06
2022-12-19T23:51:25.778Z,100857.34
